• Join FlightAware (Why Join?)
  • Login
  • US Flag 
03:09PM EDT


 

Airport Tracker/Info


-or-


 

Live Flight TrackerFlight Track Log ✈ FLG3729 ✈ 08-May-2013 ✈ KALB - KDTW

Flight Track Log - Related Links

Times and Time Zones

All times are in EDT time to prevent confusion due to time zone crossing. See the FLG3729 flight status page for this flight to view local times or setup timezone preferences in your user account.

Time Position Orientation Groundspeed Altitude Reporting Facility
EDT Latitude Longitude Course Direction KTS MPH feet Rate Location/Type
05:50AM 42.7278 -73.8081 283° West 151 174 1,500  Level Boston Center
05:51AM 42.6756 -73.8125 184° South 202 232 3,800 2,040 Climbing Boston Center
05:52AM 42.6703 -73.8972 265° West 228 262 6,000 2,460 Climbing Boston Center
05:53AM 42.8340 -74.3376 283° West  Level FlightAware Approximate
05:53AM 42.7361 -73.9722 320° Northwest 235 270 9,200  Level Boston Center
05:54AM 42.8569 -74.4744 283° West  Level FlightAware Approximate
05:54AM 42.8017 -74.0503 319° Northwest 278 320 12,200  Level Boston Center
05:55AM 42.8901 -74.6051 283° West  Level FlightAware Approximate
05:55AM 42.8397 -74.1617 295° West 296 341 15,200  Level Boston Center
05:56AM 42.8567 -74.2725 282° West 316 364 17,600 2,100 Climbing Boston Center
05:57AM 42.8775 -74.3950 283° West 328 377 19,400 1,740 Climbing Boston Center
05:58AM 42.8961 -74.5175 282° West 333 383 21,100 1,560 Climbing Boston Center
05:59AM 42.9186 -74.6517 283° West 338 389 22,600 1,500 Climbing Boston Center
06:00AM 42.9411 -74.7886 283° West 348 400 24,200 1,380 Climbing Boston Center
06:01AM 42.9631 -74.9256 282° West 361 415 25,400 1,200 Climbing Boston Center
06:02AM 42.9850 -75.0656 282° West 371 427 26,700 1,080 Climbing Boston Center
06:03AM 43.0086 -75.2114 283° West 383 441 27,600 960 Climbing Boston Center
06:04AM 43.0342 -75.3603 283° West 395 455 28,700 900 Climbing Boston Center
06:05AM 43.0572 -75.5119 282° West 400 460 29,500 600 Climbing Boston Center
06:06AM 43.0797 -75.6725 281° West 412 474 30,000 180 Climbing Boston Center
06:07AM 43.1250 -75.9744 282° West 451 519 30,000  Level Cleveland Center
06:08AM 43.1525 -76.1461 282° West 461 531 30,000  Level Cleveland Center
06:09AM 43.1528 -76.3197 270° West 466 536 30,000  Level Cleveland Center
06:10AM 43.1392 -76.4603 262° West 461 531 30,000  Level Cleveland Center
06:11AM 43.1250 -76.6489 264° West 461 531 30,000  Level Cleveland Center
06:12AM 43.1061 -76.8408 262° West 466 536 30,000  Level Cleveland Center
06:13AM 43.0911 -77.0208 264° West 471 542 30,000  Level Cleveland Center
06:14AM 43.0756 -77.1950 263° West 471 542 30,000  Level Cleveland Center
06:15AM 43.0575 -77.3694 262° West 471 542 30,000  Level Cleveland Center
06:16AM 43.0394 -77.5494 262° West 471 542 30,000  Level Cleveland Center
06:17AM 43.0250 -77.7233 264° West 471 542 30,000  Level Cleveland Center
06:18AM 43.0064 -77.9003 262° West 471 542 30,000  Level Cleveland Center
06:19AM 42.9894 -78.0769 263° West 471 542 30,000  Level Cleveland Center
06:20AM 42.9703 -78.2567 262° West 471 542 30,000  Level Cleveland Center
06:21AM 42.9528 -78.4303 262° West 480 552 30,000  Level Cleveland Center
06:22AM 42.9353 -78.6094 262° West 480 552 30,000  Level Cleveland Center
06:23AM 42.9111 -78.7861 259° West 480 552 30,000  Level Cleveland Center
06:24AM 42.8883 -78.9481 259° West 480 552 30,000  Level Cleveland Center
06:25AM 42.8636 -79.1217 259° West 485 558 30,000  Level Cleveland Center
06:26AM 42.8386 -79.2978 259° West 485 558 30,000  Level Cleveland Center
06:27AM 42.8114 -79.4739 258° West 485 558 30,000  Level Cleveland Center
06:28AM 42.7836 -79.6525 258° West 485 558 30,000  Level Cleveland Center
06:29AM 42.7578 -79.8281 259° West 485 558 30,000  Level Cleveland Center
06:30AM 42.7422 -80.0264 264° West 490 564 30,000  Level Cleveland Center
06:31AM 42.7367 -80.2072 268° West 485 558 30,000 -60 Level Cleveland Center
06:32AM 42.7289 -80.3881 267° West 480 552 29,900 -720 Descending Cleveland Center
06:33AM 42.7208 -80.5747 267° West 481 554 28,600 -960 Descending Cleveland Center
06:34AM 42.7103 -80.7583 266° West 493 567 28,000 -300 Descending Cleveland Center
06:35AM 42.7014 -80.9392 266° West 493 567 28,000  Level Cleveland Center
06:36AM 42.6842 -81.1114 262° West 476 548 28,000  Level Cleveland Center
06:37AM 42.6622 -81.2806 260° West 464 534 28,000  Level Cleveland Center
06:38AM 42.6425 -81.4469 261° West 459 528 28,000 -600 Level Cleveland Center
06:39AM 42.6244 -81.6131 262° West 459 528 26,900 -960 Descending Cleveland Center
06:40AM 42.6064 -81.7539 260° West 442 509 26,100 -1,620 Descending Cleveland Center
06:41AM 42.5858 -81.9283 261° West 437 503 23,700 -2,700 Descending Cleveland Center
06:42AM 42.5650 -82.0831 260° West 430 495 20,700 -3,000 Descending Cleveland Center
06:43AM 42.5483 -82.2292 261° West 420 483 17,800 -2,820 Descending Cleveland Center
06:44AM 42.5439 -82.2628 260° West 384 442 17,100 -3,000 Descending Cleveland Center
06:44AM 42.5297 -82.3667 260° West 397 457 14,800 -3,120 Descending Cleveland Center
06:45AM 42.5247 -82.4200 263° West 365 420 13,700 -2,700 Descending Cleveland Center
06:45AM 42.5150 -82.4986 261° West 379 436 12,100 -1,560 Descending Cleveland Center
06:46AM 42.5058 -82.5603 259° West 339 390 12,000 -120 Descending Cleveland Center
06:46AM 42.4819 -82.6158 240° Southwest 349 402 12,000  Level Cleveland Center
06:47AM 42.4597 -82.6828 246° West 341 392 12,000  Level Cleveland Center
06:47AM 42.4422 -82.7328 245° Southwest 343 395 12,000 60 Level Cleveland Center
06:48AM 42.4200 -82.7994 246° West 344 396 12,100  Climbing Cleveland Center
06:48AM 42.4003 -82.8494 242° Southwest 343 395 12,000  Descending Cleveland Center
06:49AM 42.3761 -82.9161 244° Southwest 345 397 12,100  Climbing Cleveland Center
06:49AM 42.3583 -82.9689 246° West 348 400 12,000 -120 Descending Cleveland Center
06:50AM 42.3342 -83.0325 243° Southwest 347 399 12,000  Level Cleveland Center
06:50AM 42.3164 -83.0767 241° Southwest 348 400 12,000  Level Cleveland Center
06:51AM 42.3006 -83.1322 249° West 275 316 12,000  Level Cleveland Center
06:51AM 42.2831 -83.1681 237° Southwest 315 362 12,000 60 Level Cleveland Center
06:52AM 42.2553 -83.2061 225° Southwest 251 289 12,100  Climbing Cleveland Center
06:52AM 42.2278 -83.2219 203° Southwest 269 310 12,000 -1,020 Descending Cleveland Center
06:53AM 42.1939 -83.2456 207° Southwest 249 287 11,100 -1,500 Descending Cleveland Center
06:53AM 42.1622 -83.2639 203° Southwest 258 297 10,500 -1,620 Descending Cleveland Center
06:54AM 42.1239 -83.2875 205° Southwest 251 289 9,500 -1,680 Descending Cleveland Center
06:55AM 42.0689 -83.3217 205° Southwest 246 283 8,000 -1,920 Descending Cleveland Center
06:56AM 42.0056 -83.3636 206° Southwest 243 280 5,900 -1,740 Descending Cleveland Center
06:57AM 41.9950 -83.4469 260° West 231 266 4,500 -960 Descending Cleveland Center
06:58AM 42.0489 -83.4606 349° North 214 246 4,000 -840 Descending Cleveland Center
06:59AM 42.1000 -83.4236 28° Northeast 188 216 2,900 -1,020 Descending Cleveland Center
07:00AM 42.1403 -83.3975 26° Northeast 144 166 2,000 -900 Descending Cleveland Center